createdAt,value
2022-12-04T00:02:42.023Z,19.80
2022-12-04T00:12:43.508Z,19.77
2022-12-04T00:22:44.942Z,20.23
2022-12-04T00:32:46.419Z,20.90
2022-12-04T00:42:47.868Z,19.30
2022-12-04T00:52:49.377Z,19.67
2022-12-04T01:02:50.851Z,19.10
2022-12-04T01:12:55.485Z,19.27
2022-12-04T01:22:56.990Z,19.40
2022-12-04T01:32:58.466Z,20.90
2022-12-04T01:43:00.101Z,18.97
2022-12-04T01:53:01.849Z,21.07
2022-12-04T02:03:03.386Z,17.30
2022-12-04T02:13:14.163Z,17.97
2022-12-04T02:23:25.751Z,19.23
2022-12-04T02:33:39.119Z,19.03
2022-12-04T02:43:47.762Z,21.23
2022-12-04T02:53:57.179Z,22.33
2022-12-04T03:04:20.668Z,24.67
2022-12-04T03:14:33.768Z,26.83
2022-12-04T03:24:40.975Z,27.10
2022-12-04T03:35:03.558Z,26.73
2022-12-04T03:45:22.210Z,29.23
2022-12-04T03:55:29.539Z,22.90
2022-12-04T04:05:34.139Z,22.33
2022-12-04T04:15:57.762Z,21.43
2022-12-04T04:26:02.644Z,20.83
2022-12-04T04:36:14.396Z,20.33
2022-12-04T04:46:28.674Z,20.57
2022-12-04T04:56:31.425Z,19.33
2022-12-04T05:06:33.594Z,19.70
2022-12-04T05:16:35.509Z,22.03
2022-12-04T05:26:36.989Z,21.17
2022-12-04T05:36:38.447Z,19.47
2022-12-04T05:46:39.962Z,21.10
2022-12-04T05:56:41.464Z,20.10
2022-12-04T06:06:43.007Z,22.87
2022-12-04T06:16:46.510Z,20.23
2022-12-04T06:27:25.149Z,22.33
2022-12-04T06:37:10.614Z,22.40
2022-12-04T06:47:12.207Z,21.77
2022-12-04T06:57:13.753Z,21.77
2022-12-04T07:07:15.224Z,21.13
2022-12-04T07:17:16.742Z,22.17
2022-12-04T07:27:18.208Z,20.43
2022-12-04T07:37:19.668Z,18.13
2022-12-04T07:47:21.210Z,18.87
2022-12-04T07:57:22.879Z,16.83
2022-12-04T08:07:24.342Z,14.57
2022-12-04T08:17:25.998Z,14.57
2022-12-04T08:27:27.489Z,14.47
2022-12-04T08:37:29.001Z,15.23
2022-12-04T08:47:30.459Z,14.87
2022-12-04T08:57:31.896Z,13.53
2022-12-04T09:07:33.421Z,14.40
2022-12-04T09:17:36.303Z,14.27
2022-12-04T09:27:38.917Z,14.03
2022-12-04T09:37:40.421Z,12.30
2022-12-04T09:47:48.523Z,12.63
2022-12-04T09:58:00.034Z,12.13
2022-12-04T10:08:16.112Z,11.40
2022-12-04T10:18:45.661Z,11.00
2022-12-04T10:28:55.542Z,9.87
2022-12-04T10:39:01.155Z,9.77
2022-12-04T10:49:10.924Z,10.97
2022-12-04T10:59:15.963Z,9.27
2022-12-04T11:09:24.151Z,10.23
2022-12-04T11:19:28.450Z,10.07
2022-12-04T11:29:44.456Z,9.90
2022-12-04T11:39:46.636Z,8.47
2022-12-04T11:50:01.596Z,8.00
2022-12-04T12:00:16.382Z,8.33
2022-12-04T12:10:26.841Z,7.73
2022-12-04T12:20:38.000Z,8.30
2022-12-04T12:31:25.978Z,8.40
2022-12-04T12:41:35.966Z,8.43
2022-12-04T12:51:41.418Z,8.87
2022-12-04T13:02:00.866Z,9.20
2022-12-04T13:12:09.417Z,8.37
2022-12-04T13:22:16.879Z,8.67
2022-12-04T13:32:59.682Z,9.20
2022-12-04T13:43:33.310Z,10.20
2022-12-04T13:53:37.872Z,9.50
2022-12-04T14:03:50.378Z,10.03
2022-12-04T14:14:01.198Z,10.83
2022-12-04T14:24:25.312Z,10.40
2022-12-04T14:34:29.731Z,11.97
2022-12-04T14:44:31.901Z,11.13
2022-12-04T14:54:45.062Z,11.50
2022-12-04T15:04:49.093Z,12.67
2022-12-04T15:14:50.873Z,11.70
2022-12-04T15:24:53.399Z,13.03
2022-12-04T15:35:00.947Z,12.33
2022-12-04T15:45:25.404Z,12.33
2022-12-04T15:55:30.557Z,13.73
2022-12-04T16:05:36.424Z,12.10
2022-12-04T16:15:43.719Z,13.30
2022-12-04T16:25:45.304Z,19.07
2022-12-04T16:35:46.781Z,26.27
2022-12-04T16:45:51.933Z,25.00
2022-12-04T16:55:53.475Z,26.30
2022-12-04T17:05:55.917Z,25.73
2022-12-04T17:15:58.597Z,30.97
2022-12-04T17:26:02.184Z,29.63
2022-12-04T17:36:08.946Z,28.13
2022-12-04T17:46:13.656Z,30.13
2022-12-04T17:56:18.585Z,27.87
2022-12-04T18:06:29.098Z,33.50
2022-12-04T18:16:32.039Z,30.97
2022-12-04T18:26:36.262Z,34.73
2022-12-04T18:36:39.259Z,29.50
2022-12-04T18:46:41.659Z,31.70
2022-12-04T18:56:44.164Z,30.37
2022-12-04T19:06:48.343Z,32.30
2022-12-04T19:16:51.368Z,31.00
2022-12-04T19:26:53.930Z,34.00
2022-12-04T19:36:55.378Z,32.40
2022-12-04T19:46:56.855Z,31.67
2022-12-04T19:56:58.353Z,33.50
2022-12-04T20:06:59.810Z,31.77
2022-12-04T20:17:04.086Z,33.63
2022-12-04T20:27:05.729Z,31.70
2022-12-04T20:37:07.220Z,29.53
2022-12-04T20:47:08.739Z,34.37
2022-12-04T20:57:10.432Z,35.20
2022-12-04T21:07:11.923Z,38.80
2022-12-04T21:17:18.405Z,37.63
2022-12-04T21:27:21.385Z,32.37
2022-12-04T21:37:23.037Z,26.87
2022-12-04T21:47:24.717Z,27.93
2022-12-04T21:57:27.671Z,31.00
2022-12-04T22:07:29.209Z,29.63
2022-12-04T22:17:30.925Z,30.40
2022-12-04T22:27:32.387Z,31.07
2022-12-04T22:37:34.090Z,28.33
2022-12-04T22:47:35.544Z,30.57
2022-12-04T22:57:37.231Z,29.80
2022-12-04T23:07:39.263Z,31.87
2022-12-04T23:17:40.838Z,28.73
2022-12-04T23:27:42.289Z,28.80
2022-12-04T23:37:43.901Z,28.87
2022-12-04T23:47:45.434Z,34.60
2022-12-04T23:57:47.064Z,29.73
